Time;durP1;ratioP1;P1;durP2;ratioP2;P2;SDS_P1;SDS_P2;PMS_P1;PMS_P2;Temp;Humidity;BMP_temperature;BMP_pressure;BME280_temperature;BME280_humidity;BME280_pressure;Samples;Min_cycle;Max_cycle;Signal;HPM_P1;HPM_P2
2023/06/10 00:01:59;;;;;;;0.38;0.28;;;17.40;99.90;;;;;;5011169;28;20042;-72
2023/06/10 00:04:26;;;;;;;0.80;0.30;;;17.40;99.90;;;;;;5012176;28;20045;-72
2023/06/10 00:06:52;;;;;;;0.77;0.57;;;17.40;99.90;;;;;;5011278;28;20045;-72
2023/06/10 00:09:18;;;;;;;0.30;0.30;;;17.30;99.90;;;;;;5012556;28;20030;-72
2023/06/10 00:11:44;;;;;;;0.35;0.15;;;17.30;99.90;;;;;;5012466;28;20486;-71
2023/06/10 00:14:10;;;;;;;0.05;0.05;;;17.30;99.90;;;;;;5010608;28;20108;-71
2023/06/10 00:16:36;;;;;;;0.38;0.38;;;17.30;99.90;;;;;;5012640;28;20041;-72
2023/06/10 00:19:03;;;;;;;0.47;0.47;;;17.30;99.90;;;;;;5012005;28;20041;-72
2023/06/10 00:21:37;;;;;;;0.30;0.30;;;17.30;99.90;;;;;;5012639;28;20048;-72
2023/06/10 00:24:09;;;;;;;0.57;0.50;;;17.30;99.90;;;;;;5013149;28;20128;-71
2023/06/10 00:26:35;;;;;;;0.30;0.28;;;17.30;99.90;;;;;;5008561;28;20099;-72
2023/06/10 00:29:01;;;;;;;0.10;0.10;;;17.30;99.90;;;;;;5013158;28;20049;-72
2023/06/10 00:31:26;;;;;;;0.00;0.00;;;17.30;99.90;;;;;;5010190;28;20045;-72
2023/06/10 00:33:52;;;;;;;4.45;0.70;;;17.30;99.90;;;;;;5012427;28;20033;-72
2023/06/10 00:36:18;;;;;;;0.17;0.17;;;17.20;99.90;;;;;;5011048;28;20041;-72
2023/06/10 00:38:44;;;;;;;1.73;0.73;;;17.20;99.90;;;;;;5011325;28;20128;-72
2023/06/10 00:41:10;;;;;;;0.98;0.65;;;17.10;99.90;;;;;;5013390;28;20041;-73
2023/06/10 00:43:36;;;;;;;0.10;0.10;;;17.10;99.90;;;;;;4994460;28;20038;-72
2023/06/10 00:46:02;;;;;;;0.38;0.28;;;17.10;99.90;;;;;;5005488;28;20049;-72
2023/06/10 00:48:28;;;;;;;2.22;0.43;;;17.10;99.90;;;;;;4993334;28;20057;-71
2023/06/10 00:50:54;;;;;;;2.30;0.65;;;17.00;99.90;;;;;;5029895;28;20120;-71
2023/06/10 00:53:21;;;;;;;0.60;0.20;;;17.00;99.90;;;;;;5011659;28;20116;-71
2023/06/10 00:55:47;;;;;;;0.10;0.10;;;17.00;99.90;;;;;;5010838;28;20045;-71
2023/06/10 00:58:13;;;;;;;0.08;0.03;;;17.00;99.90;;;;;;5011336;28;20522;-71
2023/06/10 01:00:39;;;;;;;1.45;0.75;;;16.90;99.90;;;;;;5011736;28;20095;-72
2023/06/10 01:03:08;;;;;;;6.38;0.47;;;16.90;99.90;;;;;;4995586;28;20045;-72
2023/06/10 01:05:37;;;;;;;1.45;0.32;;;16.90;99.90;;;;;;5008303;28;20430;-72
2023/06/10 01:08:25;;;;;;;0.10;0.10;;;16.80;99.90;;;;;;5010400;28;20147;-71
2023/06/10 01:10:57;;;;;;;0.10;0.10;;;16.80;99.90;;;;;;5010434;28;20038;-72
2023/06/10 01:13:28;;;;;;;0.35;0.25;;;16.80;99.90;;;;;;4995688;28;20045;-72
2023/06/10 01:15:57;;;;;;;0.17;0.17;;;16.80;99.90;;;;;;5012626;28;20378;-71
2023/06/10 01:18:23;;;;;;;1.08;0.20;;;16.70;99.90;;;;;;5008519;28;20053;-71
2023/06/10 01:20:49;;;;;;;1.65;0.40;;;16.70;99.90;;;;;;5009466;28;20088;-71
2023/06/10 01:23:15;;;;;;;0.00;0.00;;;16.60;99.90;;;;;;5011202;28;20046;-72
2023/06/10 01:26:06;;;;;;;0.10;0.10;;;16.60;99.90;;;;;;5010938;28;20038;-72
2023/06/10 01:28:56;;;;;;;0.00;0.00;;;16.60;99.90;;;;;;5011792;28;20033;-70
2023/06/10 01:31:33;;;;;;;2.28;0.47;;;16.50;99.90;;;;;;5009912;28;20095;-72
2023/06/10 01:34:02;;;;;;;0.10;0.10;;;16.50;99.90;;;;;;4992990;28;20053;-72
2023/06/10 01:36:28;;;;;;;0.80;0.63;;;16.50;99.90;;;;;;5008927;28;20122;-72
2023/06/10 01:38:56;;;;;;;0.20;0.10;;;16.40;99.90;;;;;;5011968;28;20440;-72
2023/06/10 01:41:22;;;;;;;0.10;0.10;;;16.40;99.90;;;;;;4995492;28;20049;-72
2023/06/10 01:43:48;;;;;;;1.67;0.68;;;16.40;99.90;;;;;;5011127;28;20052;-72
2023/06/10 01:46:19;;;;;;;0.20;0.17;;;16.30;99.90;;;;;;5009828;28;20042;-71
2023/06/10 01:48:48;;;;;;;4.03;1.10;;;16.30;99.90;;;;;;4994097;28;20375;-71
2023/06/10 01:51:14;;;;;;;0.60;0.43;;;16.20;99.90;;;;;;5010576;28;20064;-72
2023/06/10 01:53:39;;;;;;;1.02;0.50;;;16.20;99.90;;;;;;5007184;28;20478;-72
2023/06/10 01:56:05;;;;;;;0.52;0.45;;;16.20;99.90;;;;;;5008604;28;20065;-73
2023/06/10 01:58:31;;;;;;;3.17;0.57;;;16.20;99.90;;;;;;5011395;28;20041;-71
2023/06/10 02:00:57;;;;;;;1.38;0.57;;;16.10;99.90;;;;;;5009146;28;20058;-72
2023/06/10 02:03:22;;;;;;;0.32;0.20;;;16.10;99.90;;;;;;5010551;28;20640;-72
2023/06/10 02:05:49;;;;;;;0.03;0.00;;;16.10;99.90;;;;;;5011861;28;20041;-72
2023/06/10 02:08:15;;;;;;;0.32;0.30;;;16.00;99.90;;;;;;4991192;28;20044;-72
2023/06/10 02:10:40;;;;;;;0.13;0.13;;;16.00;99.90;;;;;;5010315;28;20025;-72
2023/06/10 02:13:06;;;;;;;0.25;0.25;;;16.00;99.90;;;;;;5010548;28;20040;-70
2023/06/10 02:15:32;;;;;;;0.22;0.13;;;15.90;99.90;;;;;;5011428;28;20033;-72
2023/06/10 02:17:59;;;;;;;0.52;0.30;;;15.90;99.90;;;;;;5008356;28;20049;-71
2023/06/10 02:20:25;;;;;;;0.43;0.35;;;15.90;99.90;;;;;;5008385;28;20428;-71
2023/06/10 02:22:50;;;;;;;0.20;0.10;;;15.80;99.90;;;;;;5010147;28;20115;-72
2023/06/10 02:25:16;;;;;;;0.75;0.55;;;15.80;99.90;;;;;;5006795;28;20037;-71
2023/06/10 02:27:42;;;;;;;0.10;0.10;;;15.70;99.90;;;;;;4994423;28;20099;-71
2023/06/10 02:30:10;;;;;;;0.88;0.50;;;15.70;99.90;;;;;;5007129;28;20413;-72
2023/06/10 02:32:36;;;;;;;0.38;0.38;;;15.70;99.90;;;;;;5008353;28;20048;-72
2023/06/10 02:35:01;;;;;;;0.10;0.10;;;15.60;99.90;;;;;;5001736;28;20045;-70
2023/06/10 02:37:31;;;;;;;0.45;0.45;;;15.60;99.90;;;;;;5006212;28;20112;-71
2023/06/10 02:40:04;;;;;;;0.30;0.30;;;15.60;99.90;;;;;;5006787;28;20053;-71
2023/06/10 02:42:38;;;;;;;0.52;0.10;;;15.50;99.90;;;;;;5009530;28;20425;-72
2023/06/10 02:45:11;;;;;;;0.75;0.40;;;15.50;99.90;;;;;;5006887;28;20037;-72
2023/06/10 02:47:41;;;;;;;0.52;0.35;;;15.50;99.90;;;;;;5008952;28;20410;-72
2023/06/10 02:50:07;;;;;;;0.38;0.20;;;15.40;99.90;;;;;;5004672;28;20100;-72
2023/06/10 02:52:33;;;;;;;5.95;0.90;;;15.40;99.90;;;;;;5008394;28;20042;-72
2023/06/10 02:54:58;;;;;;;0.28;0.28;;;15.30;99.90;;;;;;5010469;28;20049;-72
2023/06/10 02:57:24;;;;;;;0.50;0.50;;;15.30;99.90;;;;;;4999235;28;20053;-70
2023/06/10 02:59:51;;;;;;;0.32;0.32;;;15.30;99.90;;;;;;5011836;28;20515;-71
2023/06/10 03:02:16;;;;;;;0.17;0.17;;;15.20;99.90;;;;;;5014995;28;20045;-71
2023/06/10 03:04:43;;;;;;;0.40;0.40;;;15.20;99.90;;;;;;5031397;28;20124;-72
2023/06/10 03:07:11;;;;;;;0.32;0.20;;;15.20;99.90;;;;;;5014578;28;20045;-72
2023/06/10 03:09:37;;;;;;;0.65;0.30;;;15.20;99.90;;;;;;5008019;28;20052;-72
2023/06/10 03:12:03;;;;;;;0.05;0.05;;;15.10;99.90;;;;;;4998384;28;20497;-72
2023/06/10 03:14:28;;;;;;;0.30;0.20;;;15.10;99.90;;;;;;5013576;28;20405;-72
2023/06/10 03:16:54;;;;;;;0.60;0.47;;;15.00;99.90;;;;;;5011698;28;20589;-72
2023/06/10 03:19:21;;;;;;;0.47;0.22;;;15.00;99.90;;;;;;5012179;28;20497;-72
2023/06/10 03:22:06;;;;;;;0.45;0.45;;;15.00;99.90;;;;;;5011198;28;20041;-72
2023/06/10 03:24:32;;;;;;;1.35;0.20;;;15.00;99.90;;;;;;5013630;28;20099;-72
2023/06/10 03:26:57;;;;;;;0.30;0.30;;;14.90;99.90;;;;;;5009784;28;20081;-72
2023/06/10 03:29:23;;;;;;;1.17;0.47;;;14.90;99.90;;;;;;5011540;28;20501;-73
2023/06/10 03:31:49;;;;;;;0.40;0.40;;;14.80;99.90;;;;;;5028258;28;20106;-73
2023/06/10 03:34:14;;;;;;;0.20;0.20;;;14.80;99.90;;;;;;5007377;28;20057;-71
2023/06/10 03:36:42;;;;;;;0.63;0.30;;;14.70;99.90;;;;;;5012418;28;20401;-70
2023/06/10 03:39:09;;;;;;;1.45;0.13;;;14.70;99.90;;;;;;5014408;28;20497;-71
2023/06/10 03:41:34;;;;;;;1.90;0.35;;;14.60;99.90;;;;;;5013809;28;20055;-71
2023/06/10 03:44:00;;;;;;;0.52;0.52;;;14.60;99.90;;;;;;5010200;28;20046;-71
2023/06/10 03:46:26;;;;;;;2.10;0.35;;;14.70;99.90;;;;;;5029710;28;20045;-72
2023/06/10 03:48:52;;;;;;;0.38;0.38;;;14.70;99.90;;;;;;5008612;28;20057;-73
2023/06/10 03:51:17;;;;;;;0.95;0.73;;;14.70;99.90;;;;;;4994356;28;20128;-72
2023/06/10 03:53:43;;;;;;;0.45;0.30;;;14.60;99.90;;;;;;5007424;28;20430;-72
2023/06/10 03:56:09;;;;;;;4.38;1.67;;;14.60;99.90;;;;;;5008084;28;20045;-73
2023/06/10 03:58:35;;;;;;;0.28;0.20;;;14.60;99.90;;;;;;5008876;28;20534;-72
2023/06/10 04:01:00;;;;;;;0.20;0.20;;;14.60;99.90;;;;;;5008478;28;20042;-73
2023/06/10 04:03:27;;;;;;;0.08;0.08;;;14.60;99.90;;;;;;5008650;28;20441;-73
2023/06/10 04:05:52;;;;;;;0.05;0.00;;;14.60;99.90;;;;;;5006551;28;20042;-73
2023/06/10 04:08:18;;;;;;;0.15;0.15;;;14.60;99.90;;;;;;5009663;28;20048;-72
2023/06/10 04:10:44;;;;;;;1.70;0.63;;;14.60;99.90;;;;;;5010066;28;20045;-71
2023/06/10 04:13:10;;;;;;;1.05;0.47;;;14.50;99.90;;;;;;5009155;28;20141;-71
2023/06/10 04:15:36;;;;;;;0.65;0.43;;;14.50;99.90;;;;;;5004011;28;20046;-72
2023/06/10 04:18:02;;;;;;;0.00;0.00;;;14.60;99.90;;;;;;5008800;28;20049;-71
2023/06/10 04:20:28;;;;;;;6.82;1.33;;;14.60;99.90;;;;;;5009342;28;20510;-71
2023/06/10 04:22:53;;;;;;;0.20;0.10;;;14.60;99.90;;;;;;5008945;28;20506;-71
2023/06/10 04:25:20;;;;;;;0.65;0.30;;;14.60;99.90;;;;;;5006571;28;20040;-71
2023/06/10 04:27:45;;;;;;;0.20;0.20;;;14.70;99.90;;;;;;5008216;28;20378;-71
2023/06/10 04:30:12;;;;;;;0.52;0.17;;;14.80;99.90;;;;;;5007889;28;20045;-73
2023/06/10 04:32:38;;;;;;;1.95;0.90;;;14.80;99.90;;;;;;5007996;28;20034;-73
2023/06/10 04:35:04;;;;;;;0.30;0.17;;;14.80;99.90;;;;;;5021999;28;20038;-73
2023/06/10 04:37:30;;;;;;;1.13;0.52;;;14.90;99.90;;;;;;5009185;28;20107;-73
2023/06/10 04:39:56;;;;;;;4.90;0.70;;;15.00;99.90;;;;;;5006762;28;20046;-73
2023/06/10 04:42:22;;;;;;;0.57;0.20;;;15.00;99.90;;;;;;5010255;28;20045;-73
2023/06/10 04:44:48;;;;;;;3.45;0.75;;;15.00;99.90;;;;;;5004500;28;20100;-74
2023/06/10 04:47:14;;;;;;;0.40;0.40;;;15.10;99.90;;;;;;4992657;28;20383;-72
2023/06/10 04:49:39;;;;;;;0.10;0.10;;;15.00;99.90;;;;;;5006042;28;20059;-72
2023/06/10 04:52:05;;;;;;;0.10;0.10;;;15.10;99.90;;;;;;5006999;28;20546;-71
2023/06/10 04:54:32;;;;;;;0.45;0.43;;;15.20;99.90;;;;;;5009207;28;20041;-73
2023/06/10 04:56:58;;;;;;;0.65;0.65;;;15.20;99.90;;;;;;5003281;28;20092;-73
2023/06/10 04:59:23;;;;;;;0.47;0.45;;;15.50;99.90;;;;;;5007885;28;20576;-72
2023/06/10 05:01:49;;;;;;;0.03;0.03;;;15.90;99.90;;;;;;4993289;28;20112;-73
2023/06/10 05:04:15;;;;;;;1.58;0.70;;;16.40;99.90;;;;;;5007285;28;20125;-73
2023/06/10 05:06:40;;;;;;;0.55;0.20;;;16.60;99.90;;;;;;5006365;28;20034;-74
2023/06/10 05:09:06;;;;;;;0.20;0.10;;;16.70;99.90;;;;;;5007815;28;20574;-73
2023/06/10 05:11:32;;;;;;;0.65;0.30;;;16.40;99.90;;;;;;5006284;28;20033;-73
2023/06/10 05:13:57;;;;;;;0.10;0.10;;;16.40;99.90;;;;;;5006838;28;20155;-71
2023/06/10 05:16:23;;;;;;;0.65;0.43;;;16.30;99.90;;;;;;5005668;28;20410;-72
2023/06/10 05:18:50;;;;;;;0.08;0.08;;;16.20;99.90;;;;;;5005418;28;20060;-72
2023/06/10 05:21:16;;;;;;;0.00;0.00;;;16.20;99.90;;;;;;5006489;28;20094;-71
2023/06/10 05:23:42;;;;;;;1.35;0.77;;;16.10;99.90;;;;;;5007534;28;20406;-73
2023/06/10 05:26:08;;;;;;;0.20;0.10;;;15.90;99.90;;;;;;5005720;28;20037;-73
2023/06/10 05:28:33;;;;;;;0.55;0.38;;;15.90;99.90;;;;;;5007432;28;20069;-73
2023/06/10 05:30:59;;;;;;;1.67;0.52;;;15.90;99.90;;;;;;5005023;28;20046;-74
2023/06/10 05:33:25;;;;;;;2.40;0.57;;;16.00;99.90;;;;;;5005310;28;20057;-73
2023/06/10 05:35:51;;;;;;;0.22;0.10;;;16.10;99.90;;;;;;5007307;28;20045;-73
2023/06/10 05:38:16;;;;;;;1.23;0.25;;;16.10;99.90;;;;;;5008948;28;20153;-73
2023/06/10 05:40:42;;;;;;;0.55;0.40;;;16.20;99.90;;;;;;5005703;28;20084;-73
2023/06/10 05:43:09;;;;;;;5.70;0.35;;;16.30;99.90;;;;;;5008587;28;20402;-73
2023/06/10 05:45:35;;;;;;;0.15;0.10;;;16.40;99.90;;;;;;5006072;28;20049;-73
2023/06/10 05:48:00;;;;;;;0.20;0.20;;;16.40;99.90;;;;;;5008209;28;20409;-73
2023/06/10 05:50:26;;;;;;;0.13;0.10;;;16.60;99.90;;;;;;5002967;28;20100;-73
2023/06/10 05:52:53;;;;;;;0.10;0.10;;;16.60;99.90;;;;;;4992319;28;20537;-73
2023/06/10 05:55:19;;;;;;;0.63;0.40;;;16.80;99.90;;;;;;5007628;28;20111;-73
2023/06/10 05:57:45;;;;;;;0.90;0.47;;;16.80;99.90;;;;;;5008323;28;20042;-73
2023/06/10 06:00:11;;;;;;;0.35;0.20;;;16.90;99.90;;;;;;5004506;28;20062;-73
2023/06/10 06:02:37;;;;;;;0.40;0.22;;;17.00;99.90;;;;;;4987923;28;20042;-71
2023/06/10 06:05:02;;;;;;;0.10;0.10;;;17.00;99.90;;;;;;5005585;28;20133;-72
2023/06/10 06:07:28;;;;;;;0.25;0.17;;;17.00;99.90;;;;;;5006263;28;20053;-73
2023/06/10 06:09:54;;;;;;;0.20;0.20;;;17.10;99.90;;;;;;5006585;28;20042;-72
2023/06/10 06:12:20;;;;;;;0.68;0.40;;;17.20;99.90;;;;;;5006487;28;20073;-72
2023/06/10 06:14:45;;;;;;;1.65;0.13;;;17.20;99.90;;;;;;5007556;28;20054;-74
2023/06/10 06:17:11;;;;;;;0.38;0.38;;;17.30;99.90;;;;;;5006039;28;20100;-75
2023/06/10 06:19:37;;;;;;;6.22;0.45;;;17.20;99.90;;;;;;5004223;28;20040;-74
2023/06/10 06:22:02;;;;;;;1.55;0.40;;;17.30;99.90;;;;;;5002957;28;20044;-74
2023/06/10 06:24:28;;;;;;;1.10;0.35;;;17.40;99.90;;;;;;4991427;28;20038;-74
2023/06/10 06:26:54;;;;;;;1.75;0.75;;;17.60;99.90;;;;;;5001639;28;20045;-74
2023/06/10 06:29:19;;;;;;;0.40;0.40;;;17.70;99.90;;;;;;5003043;28;20129;-74
2023/06/10 06:31:45;;;;;;;1.98;0.25;;;17.80;99.90;;;;;;4998496;28;20461;-74
2023/06/10 06:34:11;;;;;;;3.60;0.38;;;17.80;99.90;;;;;;5004007;28;20074;-73
2023/06/10 06:36:37;;;;;;;0.05;0.05;;;17.80;99.90;;;;;;5004714;28;20091;-74
2023/06/10 06:39:02;;;;;;;0.10;0.10;;;17.90;99.90;;;;;;5007214;28;20053;-74
2023/06/10 06:41:28;;;;;;;2.10;0.98;;;18.10;99.90;;;;;;5003323;28;20073;-73
2023/06/10 06:43:55;;;;;;;0.32;0.25;;;18.20;99.90;;;;;;5006388;28;20049;-73
2023/06/10 06:46:22;;;;;;;0.22;0.22;;;18.30;99.90;;;;;;5005543;28;20125;-74
2023/06/10 06:48:48;;;;;;;0.13;0.13;;;18.40;99.90;;;;;;5005355;28;20070;-73
2023/06/10 06:51:14;;;;;;;2.65;0.80;;;18.40;99.90;;;;;;5007648;28;20096;-73
2023/06/10 06:53:44;;;;;;;1.77;1.17;;;18.40;99.90;;;;;;5003399;28;20062;-73
2023/06/10 06:56:11;;;;;;;0.55;0.10;;;18.50;99.90;;;;;;5004616;28;20513;-71
2023/06/10 06:58:37;;;;;;;2.20;0.22;;;18.50;99.90;;;;;;5003249;28;20041;-73
2023/06/10 07:01:02;;;;;;;0.63;0.32;;;18.60;99.90;;;;;;5005821;28;20053;-72
2023/06/10 07:03:28;;;;;;;3.28;0.98;;;18.60;99.90;;;;;;4989065;28;20466;-74
2023/06/10 07:05:54;;;;;;;3.15;0.50;;;18.70;99.90;;;;;;5007193;28;20456;-73
2023/06/10 07:08:20;;;;;;;0.22;0.22;;;18.90;99.90;;;;;;4988515;28;20129;-74
2023/06/10 07:10:45;;;;;;;0.10;0.10;;;19.00;99.90;;;;;;5007382;28;20407;-74
2023/06/10 07:13:11;;;;;;;0.40;0.25;;;19.20;99.90;;;;;;5008275;28;20073;-74
2023/06/10 07:15:38;;;;;;;0.68;0.35;;;19.20;99.90;;;;;;5005064;28;20046;-77
2023/06/10 07:18:04;;;;;;;0.47;0.43;;;19.30;99.90;;;;;;5006589;28;20042;-76
2023/06/10 07:20:29;;;;;;;1.98;0.45;;;19.40;99.90;;;;;;4991299;28;20049;-74
2023/06/10 07:22:55;;;;;;;0.17;0.15;;;19.40;99.90;;;;;;5008241;28;20131;-74
2023/06/10 07:25:21;;;;;;;0.20;0.20;;;19.60;99.90;;;;;;5005470;28;20054;-74
2023/06/10 07:27:47;;;;;;;0.00;0.00;;;19.70;99.90;;;;;;5003014;28;20378;-74
2023/06/10 07:30:13;;;;;;;0.52;0.25;;;19.70;99.90;;;;;;5007232;28;20037;-74
2023/06/10 07:32:38;;;;;;;0.20;0.13;;;19.90;99.90;;;;;;5006516;28;20457;-73
2023/06/10 07:35:08;;;;;;;0.10;0.10;;;20.10;99.90;;;;;;5006206;28;20038;-74
2023/06/10 07:37:33;;;;;;;0.80;0.40;;;20.20;99.90;;;;;;5005668;28;20132;-74
2023/06/10 07:39:59;;;;;;;0.00;0.00;;;20.40;99.90;;;;;;5006461;28;20133;-72
2023/06/10 07:42:28;;;;;;;0.00;0.00;;;20.50;99.90;;;;;;5008909;28;20042;-73
2023/06/10 07:44:53;;;;;;;0.90;0.38;;;20.60;99.90;;;;;;5010400;28;20038;-72
2023/06/10 07:47:19;;;;;;;0.35;0.30;;;20.70;99.90;;;;;;4995140;28;20045;-72
2023/06/10 07:49:45;;;;;;;2.35;0.52;;;20.80;99.90;;;;;;5009358;28;20056;-73
2023/06/10 07:52:11;;;;;;;1.05;0.65;;;20.80;99.90;;;;;;5007747;28;20114;-74
2023/06/10 07:54:37;;;;;;;0.70;0.32;;;20.80;99.90;;;;;;5010812;28;20493;-73
2023/06/10 07:57:06;;;;;;;0.35;0.22;;;20.80;99.90;;;;;;5009358;28;20037;-77
2023/06/10 07:59:32;;;;;;;0.38;0.28;;;20.80;99.90;;;;;;4993228;28;20129;-72
2023/06/10 08:01:58;;;;;;;0.57;0.28;;;20.80;99.90;;;;;;5006896;28;20045;-74
2023/06/10 08:04:24;;;;;;;0.35;0.35;;;20.90;99.90;;;;;;5010515;28;20056;-76
2023/06/10 08:06:49;;;;;;;0.30;0.20;;;20.90;99.90;;;;;;5009011;28;20034;-74
2023/06/10 08:09:16;;;;;;;1.77;0.20;;;21.10;99.90;;;;;;5008349;28;20042;-73
2023/06/10 08:11:41;;;;;;;0.20;0.17;;;21.10;99.90;;;;;;5009792;28;20093;-73
2023/06/10 08:14:07;;;;;;;2.35;0.88;;;21.10;99.90;;;;;;5008295;28;20033;-74
2023/06/10 08:16:33;;;;;;;0.25;0.10;;;21.30;99.90;;;;;;5009936;28;20095;-73
2023/06/10 08:18:59;;;;;;;0.35;0.30;;;21.40;99.90;;;;;;5009936;28;20049;-79
2023/06/10 08:21:24;;;;;;;1.70;0.63;;;21.50;99.90;;;;;;5005662;28;20057;-75
2023/06/10 08:23:54;;;;;;;2.10;0.40;;;21.60;99.90;;;;;;4993358;28;20034;-75
2023/06/10 08:26:19;;;;;;;0.20;0.20;;;21.80;99.90;;;;;;5007606;28;20091;-75
2023/06/10 08:28:45;;;;;;;0.45;0.32;;;21.90;99.90;;;;;;5009769;28;20049;-74
2023/06/10 08:31:11;;;;;;;1.15;0.25;;;22.00;99.90;;;;;;5006292;28;20428;-76
2023/06/10 08:33:37;;;;;;;0.93;0.35;;;22.20;99.90;;;;;;5008869;28;20060;-74
2023/06/10 08:36:02;;;;;;;0.50;0.17;;;22.40;99.50;;;;;;5010263;28;20046;-74
2023/06/10 08:38:28;;;;;;;0.70;0.43;;;22.50;98.50;;;;;;5007079;28;20418;-80
2023/06/10 08:41:00;;;;;;;0.73;0.20;;;22.60;99.90;;;;;;4992586;28;20172;-74
2023/06/10 08:43:36;;;;;;;0.10;0.10;;;22.60;99.90;;;;;;5021497;28;20034;-74
2023/06/10 08:46:03;;;;;;;0.15;0.15;;;22.70;99.70;;;;;;4992167;28;20053;-75
2023/06/10 08:48:33;;;;;;;0.70;0.47;;;22.80;97.80;;;;;;5006859;28;20054;-73
2023/06/10 08:51:00;;;;;;;1.13;0.20;;;23.00;97.50;;;;;;4994573;28;20042;-74
2023/06/10 08:53:27;;;;;;;0.52;0.10;;;23.10;95.70;;;;;;4996679;28;20048;-73
2023/06/10 08:55:54;;;;;;;0.25;0.15;;;23.20;94.40;;;;;;4995393;28;20128;-76
2023/06/10 08:58:20;;;;;;;0.47;0.22;;;23.30;94.60;;;;;;5002562;28;20037;-74
2023/06/10 09:00:56;;;;;;;1.70;0.52;;;23.40;93.90;;;;;;5012300;28;20059;-75
2023/06/10 09:03:24;;;;;;;1.13;0.60;;;23.50;93.40;;;;;;5010731;28;20041;-73
2023/06/10 09:05:50;;;;;;;0.55;0.40;;;23.60;91.60;;;;;;4993591;28;20545;-77
2023/06/10 09:08:16;;;;;;;0.38;0.20;;;23.70;85.70;;;;;;5010129;28;20033;-74
2023/06/10 09:10:42;;;;;;;1.30;0.40;;;23.70;88.50;;;;;;5006125;28;20044;-74
2023/06/10 09:13:07;;;;;;;0.63;0.30;;;23.80;86.50;;;;;;5009055;28;20033;-77
2023/06/10 09:15:33;;;;;;;0.20;0.10;;;23.90;84.80;;;;;;4995140;28;20041;-72
2023/06/10 09:18:00;;;;;;;1.77;0.10;;;24.20;81.00;;;;;;5007978;28;20120;-74
2023/06/10 09:20:25;;;;;;;0.50;0.40;;;24.40;85.60;;;;;;5012588;28;20596;-74
2023/06/10 09:22:51;;;;;;;0.35;0.20;;;24.40;78.50;;;;;;5005339;28;20141;-74
2023/06/10 09:25:17;;;;;;;0.10;0.10;;;24.60;81.70;;;;;;5009472;28;20049;-74
2023/06/10 09:27:53;;;;;;;0.38;0.30;;;24.90;76.70;;;;;;5006914;28;20046;-73
2023/06/10 09:30:30;;;;;;;0.38;0.20;;;25.00;72.80;;;;;;5012359;28;20151;-77
2023/06/10 09:32:58;;;;;;;0.20;0.10;;;25.00;71.70;;;;;;5007662;28;20033;-77
2023/06/10 09:35:24;;;;;;;2.50;0.30;;;25.20;77.80;;;;;;5009847;28;20438;-77
2023/06/10 09:37:56;;;;;;;0.70;0.30;;;25.50;76.80;;;;;;5010947;28;20405;-77
2023/06/10 09:40:22;;;;;;;0.20;0.08;;;25.60;76.30;;;;;;5010331;28;20445;-76
2023/06/10 09:43:00;;;;;;;0.10;0.10;;;25.80;74.70;;;;;;5010951;28;20045;-77
2023/06/10 09:45:32;;;;;;;0.55;0.13;;;25.60;72.10;;;;;;5011218;28;20417;-78
2023/06/10 09:47:58;;;;;;;2.63;0.50;;;25.50;70.70;;;;;;5008198;28;20045;-78
2023/06/10 09:50:24;;;;;;;0.38;0.38;;;25.60;64.80;;;;;;4996112;28;20436;-78
2023/06/10 09:52:51;;;;;;;0.63;0.50;;;25.50;66.10;;;;;;5008612;28;20045;-78
2023/06/10 09:55:17;;;;;;;1.95;0.47;;;25.60;62.10;;;;;;5013099;28;20044;-78
2023/06/10 09:57:47;;;;;;;0.40;0.40;;;25.70;64.10;;;;;;5009410;28;20472;-79
2023/06/10 10:00:13;;;;;;;0.32;0.20;;;25.80;64.30;;;;;;5007923;28;20464;-79
2023/06/10 10:02:51;;;;;;;0.40;0.15;;;26.00;65.80;;;;;;5008572;28;20125;-75
2023/06/10 10:05:19;;;;;;;0.47;0.20;;;26.20;60.50;;;;;;5007962;28;20049;-78
2023/06/10 10:07:45;;;;;;;0.47;0.30;;;26.50;61.30;;;;;;5005174;28;20072;-78
2023/06/10 10:10:12;;;;;;;0.13;0.10;;;26.70;58.40;;;;;;5009338;28;20037;-76
2023/06/10 10:12:39;;;;;;;1.10;0.30;;;26.80;58.30;;;;;;5010328;28;20084;-76
2023/06/10 10:15:09;;;;;;;0.43;0.20;;;27.00;54.30;;;;;;4994105;28;20061;-73
2023/06/10 10:17:49;;;;;;;0.30;0.13;;;27.00;56.50;;;;;;5006551;28;20391;-78
2023/06/10 10:20:21;;;;;;;0.30;0.20;;;27.10;58.30;;;;;;5010544;28;20048;-75
2023/06/10 10:22:49;;;;;;;0.90;0.80;;;27.30;53.70;;;;;;5012044;28;20055;-78
2023/06/10 10:25:25;;;;;;;0.20;0.10;;;27.30;55.20;;;;;;5008288;28;20401;-73
2023/06/10 10:27:56;;;;;;;0.30;0.10;;;27.20;52.20;;;;;;5000973;28;20075;-80
2023/06/10 10:30:23;;;;;;;0.75;0.43;;;27.20;51.70;;;;;;5007842;28;20378;-74
2023/06/10 10:32:59;;;;;;;1.85;0.55;;;27.30;53.00;;;;;;5008496;28;20042;-74
2023/06/10 10:35:25;;;;;;;0.40;0.38;;;27.20;48.00;;;;;;5009695;28;20037;-73
2023/06/10 10:37:55;;;;;;;0.10;0.10;;;27.30;50.00;;;;;;5010297;28;20350;-71
2023/06/10 10:40:22;;;;;;;0.10;0.10;;;27.20;48.90;;;;;;5006222;28;20471;-74
2023/06/10 10:42:49;;;;;;;0.20;0.10;;;27.20;50.30;;;;;;5010403;28;20046;-77
2023/06/10 10:45:15;;;;;;;1.02;0.30;;;27.30;48.70;;;;;;5006132;28;20033;-75
2023/06/10 10:47:44;;;;;;;0.45;0.20;;;27.60;44.90;;;;;;4995112;28;20087;-74
2023/06/10 10:50:17;;;;;;;0.00;0.00;;;27.80;47.40;;;;;;5001712;28;20050;-74
2023/06/10 10:53:03;;;;;;;0.35;0.13;;;28.00;44.60;;;;;;5003677;28;20045;-76
2023/06/10 10:55:29;;;;;;;0.15;0.00;;;28.10;43.00;;;;;;5003527;28;20101;-77
2023/06/10 10:58:08;;;;;;;0.43;0.13;;;28.10;43.20;;;;;;5004145;28;20054;-75
2023/06/10 11:00:43;;;;;;;0.25;0.20;;;28.20;44.90;;;;;;5002015;28;20045;-74
2023/06/10 11:03:15;;;;;;;2.33;0.57;;;28.40;44.70;;;;;;4998121;28;20457;-74
2023/06/10 11:05:44;;;;;;;0.10;0.00;;;28.60;39.30;;;;;;5000895;28;20041;-82
2023/06/10 11:08:11;;;;;;;1.30;0.10;;;28.30;39.90;;;;;;5003006;28;20061;-75
2023/06/10 11:10:39;;;;;;;0.32;0.13;;;28.40;42.20;;;;;;5004299;28;20499;-75
2023/06/10 11:13:09;;;;;;;0.13;0.08;;;28.20;37.90;;;;;;5005016;28;20042;-74
2023/06/10 11:15:46;;;;;;;1.60;0.20;;;28.40;39.40;;;;;;5003300;28;20142;-75
2023/06/10 11:18:15;;;;;;;0.05;0.00;;;28.60;40.70;;;;;;5007585;28;20042;-74
2023/06/10 11:20:50;;;;;;;1.40;0.30;;;28.80;41.90;;;;;;4994383;28;20476;-75
2023/06/10 11:23:28;;;;;;;0.00;0.00;;;28.80;39.20;;;;;;5010917;28;20041;-75
2023/06/10 11:26:09;;;;;;;0.25;0.05;;;29.00;38.80;;;;;;5005579;28;20176;-78
2023/06/10 11:28:35;;;;;;;0.10;0.10;;;28.80;38.30;;;;;;5012679;28;20092;-75
2023/06/10 11:31:01;;;;;;;0.88;0.30;;;28.90;35.80;;;;;;5006193;28;20569;-76
2023/06/10 11:33:27;;;;;;;0.00;0.00;;;28.80;36.90;;;;;;5008651;28;20529;-79
2023/06/10 11:35:53;;;;;;;0.30;0.22;;;28.70;35.40;;;;;;5011098;28;20452;-73
2023/06/10 11:38:19;;;;;;;0.35;0.10;;;28.90;31.90;;;;;;5010840;28;20038;-76
2023/06/10 11:40:52;;;;;;;0.17;0.10;;;28.90;32.70;;;;;;5008889;28;20115;-77
2023/06/10 11:43:18;;;;;;;0.10;0.00;;;29.20;32.00;;;;;;5005889;28;20514;-77
2023/06/10 11:45:44;;;;;;;0.00;0.00;;;29.20;31.60;;;;;;5009915;28;20125;-75
2023/06/10 11:48:10;;;;;;;0.00;0.00;;;29.40;35.40;;;;;;5006683;28;20486;-77
2023/06/10 11:50:37;;;;;;;0.15;0.10;;;29.70;36.60;;;;;;4991927;28;20104;-81
2023/06/10 11:53:03;;;;;;;0.32;0.10;;;29.70;33.10;;;;;;5006218;28;20130;-77
2023/06/10 11:55:50;;;;;;;0.38;0.28;;;29.70;36.60;;;;;;5009354;28;20033;-75
2023/06/10 11:58:20;;;;;;;0.17;0.10;;;29.80;35.70;;;;;;5011945;28;20494;-76
2023/06/10 12:00:51;;;;;;;0.00;0.00;;;29.90;31.60;;;;;;5006434;28;20052;-75
2023/06/10 12:03:17;;;;;;;0.00;0.00;;;29.70;30.90;;;;;;5007994;28;20473;-75
2023/06/10 12:06:00;;;;;;;0.73;0.40;;;29.70;35.10;;;;;;5002616;28;20046;-79
2023/06/10 12:08:27;;;;;;;0.30;0.30;;;29.70;35.10;;;;;;5010520;28;20034;-79
2023/06/10 12:10:54;;;;;;;0.35;0.08;;;29.60;33.20;;;;;;5009174;28;20065;-78
2023/06/10 12:13:19;;;;;;;0.13;0.10;;;29.30;33.70;;;;;;5005972;28;20034;-78
2023/06/10 12:15:48;;;;;;;0.50;0.22;;;29.20;33.10;;;;;;5009530;28;20108;-80
2023/06/10 12:18:23;;;;;;;0.17;0.10;;;29.20;36.10;;;;;;5007822;28;20085;-77
2023/06/10 12:20:50;;;;;;;0.40;0.13;;;29.60;36.70;;;;;;5011578;28;20490;-72
2023/06/10 12:23:17;;;;;;;0.20;0.10;;;29.80;35.30;;;;;;4994215;28;20048;-78
2023/06/10 12:25:54;;;;;;;0.40;0.30;;;29.70;36.80;;;;;;5009346;28;20050;-75
2023/06/10 12:28:23;;;;;;;0.00;0.00;;;29.70;35.60;;;;;;5009167;28;20042;-76
2023/06/10 12:30:49;;;;;;;0.10;0.00;;;29.90;37.50;;;;;;5005574;28;20041;-74
2023/06/10 12:33:19;;;;;;;0.00;0.00;;;29.70;36.50;;;;;;5010675;28;20042;-76
2023/06/10 12:35:52;;;;;;;0.70;0.28;;;29.90;37.10;;;;;;5009843;28;20049;-75
2023/06/10 12:38:28;;;;;;;0.03;0.00;;;29.80;36.70;;;;;;4992291;28;20052;-73
2023/06/10 12:41:00;;;;;;;0.77;0.38;;;29.80;35.70;;;;;;5023583;28;20136;-77
2023/06/10 12:43:26;;;;;;;0.20;0.10;;;29.80;36.90;;;;;;5004311;28;20054;-75
2023/06/10 12:45:52;;;;;;;0.20;0.20;;;29.80;36.80;;;;;;5009880;28;20056;-75
2023/06/10 12:48:23;;;;;;;0.73;0.20;;;29.90;37.60;;;;;;5005496;28;20108;-77
2023/06/10 12:50:54;;;;;;;0.28;0.10;;;29.80;37.70;;;;;;5006252;28;20053;-75